createdAt,value
2018-08-13T00:00:24.767Z,40.34
2018-08-13T00:03:28.465Z,39.31
2018-08-13T00:06:32.095Z,39.12
2018-08-13T00:09:42.001Z,40.45
2018-08-13T00:12:45.708Z,40.43
2018-08-13T00:15:49.541Z,40.73
2018-08-13T00:18:53.244Z,40.48
2018-08-13T00:21:56.883Z,41.59
2018-08-13T00:25:00.468Z,41.01
2018-08-13T00:28:04.852Z,41.95
2018-08-13T00:31:08.461Z,40.59
2018-08-13T00:34:12.127Z,41.26
2018-08-13T00:37:15.677Z,41.52
2018-08-13T00:40:19.457Z,41.52
2018-08-13T00:43:23.144Z,41.08
2018-08-13T00:46:26.888Z,41.50
2018-08-13T00:49:30.727Z,40.87
2018-08-13T00:52:34.393Z,39.23
2018-08-13T00:55:38.131Z,39.64
2018-08-13T00:58:41.877Z,40.22
2018-08-13T01:01:45.591Z,41.12
2018-08-13T01:04:49.237Z,40.75
2018-08-13T01:07:52.968Z,40.54
2018-08-13T01:10:56.719Z,40.28
2018-08-13T01:14:00.352Z,40.68
2018-08-13T01:17:04.165Z,40.73
2018-08-13T01:20:09.958Z,40.16
2018-08-13T01:23:14.102Z,40.34
2018-08-13T01:26:17.717Z,39.90
2018-08-13T01:29:21.511Z,40.34
2018-08-13T01:32:25.126Z,40.89
2018-08-13T01:35:28.832Z,40.58
2018-08-13T01:38:32.599Z,41.08
2018-08-13T01:41:36.417Z,41.08
2018-08-13T01:44:40.066Z,42.03
2018-08-13T01:47:43.661Z,42.24
2018-08-13T01:50:47.389Z,42.68
2018-08-13T01:53:51.048Z,41.90
2018-08-13T01:56:54.671Z,41.99
2018-08-13T01:59:58.417Z,42.38
2018-08-13T02:03:02.122Z,42.75
2018-08-13T02:06:05.789Z,42.96
2018-08-13T02:09:11.364Z,42.98
2018-08-13T02:12:15.063Z,43.45
2018-08-13T02:15:18.784Z,42.21
2018-08-13T02:18:22.412Z,43.73
2018-08-13T02:21:26.181Z,43.82
2018-08-13T02:24:30.057Z,44.43
2018-08-13T02:27:33.799Z,43.81
2018-08-13T02:30:37.589Z,44.67
2018-08-13T02:33:41.286Z,44.76
2018-08-13T02:36:44.900Z,45.42
2018-08-13T02:39:48.509Z,45.08
2018-08-13T02:42:52.172Z,44.76
2018-08-13T02:45:55.813Z,44.96
2018-08-13T02:48:59.507Z,45.28
2018-08-13T02:52:03.279Z,44.08
2018-08-13T02:55:07.504Z,44.01
2018-08-13T02:58:11.195Z,43.87
2018-08-13T03:01:14.730Z,44.21
2018-08-13T03:04:18.350Z,44.70
2018-08-13T03:07:21.959Z,43.45
2018-08-13T03:10:25.627Z,43.61
2018-08-13T03:13:29.381Z,43.72
2018-08-13T03:16:33.034Z,43.25
2018-08-13T03:19:36.680Z,43.84
2018-08-13T03:22:40.488Z,44.06
2018-08-13T03:25:44.319Z,44.27
2018-08-13T03:28:48.069Z,42.78
2018-08-13T03:31:51.703Z,43.83
2018-08-13T03:34:55.453Z,43.30
2018-08-13T03:37:59.092Z,44.86
2018-08-13T03:41:02.954Z,42.68
2018-08-13T03:44:07.026Z,44.79
2018-08-13T03:47:10.711Z,44.66
2018-08-13T03:50:14.384Z,43.43
2018-08-13T03:53:18.050Z,43.65
2018-08-13T03:56:21.687Z,44.09
2018-08-13T03:59:25.428Z,44.23
2018-08-13T04:02:29.213Z,44.24
2018-08-13T04:05:32.908Z,44.40
2018-08-13T04:08:36.730Z,44.25
2018-08-13T04:11:40.344Z,45.01
2018-08-13T04:14:43.918Z,44.79
2018-08-13T04:17:47.698Z,44.33
2018-08-13T04:20:51.298Z,43.40
2018-08-13T04:23:55.178Z,43.88
2018-08-13T04:26:59.440Z,43.66
2018-08-13T04:30:04.025Z,43.50
2018-08-13T04:33:07.663Z,43.76
2018-08-13T04:36:11.435Z,45.08
2018-08-13T04:39:16.205Z,45.17
2018-08-13T04:42:19.880Z,44.29
2018-08-13T04:45:23.628Z,44.44
2018-08-13T04:48:27.282Z,43.55
2018-08-13T04:51:30.946Z,43.43
2018-08-13T04:54:34.640Z,45.04
2018-08-13T04:57:38.401Z,44.79
2018-08-13T05:00:42.107Z,43.85
2018-08-13T05:03:45.734Z,43.21
2018-08-13T05:06:49.335Z,41.75
2018-08-13T05:09:52.964Z,41.50
2018-08-13T05:12:56.636Z,40.05
2018-08-13T05:16:00.256Z,40.20
2018-08-13T05:19:04.206Z,39.64
2018-08-13T05:22:07.889Z,39.61
2018-08-13T05:25:11.795Z,39.14
2018-08-13T05:28:15.395Z,39.50
2018-08-13T05:31:19.121Z,40.05
2018-08-13T05:34:22.870Z,41.18
2018-08-13T05:37:26.446Z,37.99
2018-08-13T05:40:30.124Z,33.57
2018-08-13T05:43:33.781Z,31.69
2018-08-13T05:46:37.434Z,30.91
2018-08-13T05:49:41.081Z,29.79
2018-08-13T05:52:44.894Z,29.21
2018-08-13T05:55:48.611Z,29.16
2018-08-13T05:58:52.305Z,29.59
2018-08-13T06:01:55.964Z,30.11
2018-08-13T06:04:59.654Z,31.79
2018-08-13T06:08:03.304Z,32.00
2018-08-13T06:11:07.154Z,33.68
2018-08-13T06:14:10.978Z,34.53
2018-08-13T06:17:14.927Z,36.09
2018-08-13T06:20:18.595Z,36.46
2018-08-13T06:23:22.834Z,35.23
2018-08-13T06:26:26.611Z,36.51
2018-08-13T06:29:30.305Z,35.55
2018-08-13T06:32:34.035Z,37.37
2018-08-13T06:35:37.970Z,39.31
2018-08-13T06:38:41.694Z,39.97
2018-08-13T06:41:45.344Z,40.55
2018-08-13T06:44:48.975Z,40.50
2018-08-13T06:47:52.754Z,40.41
2018-08-13T06:50:56.527Z,40.92
2018-08-13T06:54:00.177Z,40.33
2018-08-13T06:57:04.198Z,39.73
2018-08-13T07:00:10.406Z,39.88
2018-08-13T07:03:14.041Z,39.57
2018-08-13T07:06:17.677Z,38.86
2018-08-13T07:09:21.336Z,39.35
2018-08-13T07:12:25.105Z,40.32
2018-08-13T07:15:28.833Z,40.45
2018-08-13T07:18:32.683Z,40.38
2018-08-13T07:21:36.358Z,42.39
2018-08-13T07:24:40.201Z,41.57
2018-08-13T07:27:43.909Z,42.42
2018-08-13T07:30:47.599Z,42.36
2018-08-13T07:33:51.291Z,42.22
2018-08-13T07:36:55.116Z,43.60
2018-08-13T07:39:58.956Z,42.71
2018-08-13T07:43:02.906Z,43.84
2018-08-13T07:46:06.659Z,43.89
2018-08-13T07:49:10.602Z,43.89
2018-08-13T07:52:14.335Z,44.80
2018-08-13T07:55:18.852Z,46.27
2018-08-13T07:58:22.575Z,46.27
2018-08-13T08:01:26.208Z,45.66
2018-08-13T08:04:29.895Z,45.52
2018-08-13T08:07:33.553Z,46.39
2018-08-13T08:10:37.248Z,46.52
2018-08-13T08:13:41.011Z,47.70
2018-08-13T08:16:44.755Z,47.07
2018-08-13T08:19:48.461Z,47.21
2018-08-13T08:22:52.371Z,47.30
2018-08-13T08:25:56.219Z,47.66
2018-08-13T08:28:59.987Z,48.42
2018-08-13T08:32:03.792Z,49.07
2018-08-13T08:35:09.472Z,50.31
2018-08-13T08:38:13.429Z,51.83
2018-08-13T08:41:17.152Z,52.80
2018-08-13T08:44:21.067Z,53.37
2018-08-13T08:47:24.882Z,53.60
2018-08-13T08:50:28.680Z,54.10
2018-08-13T08:53:32.526Z,55.11
2018-08-13T08:56:36.221Z,54.01
2018-08-13T08:59:39.953Z,56.08
2018-08-13T09:02:43.604Z,60.14
2018-08-13T09:05:47.321Z,62.11
2018-08-13T09:08:51.113Z,63.21
2018-08-13T09:11:54.872Z,63.34
2018-08-13T09:14:58.838Z,63.67
2018-08-13T09:18:13.515Z,62.12
2018-08-13T09:21:29.625Z,63.46
2018-08-13T09:24:44.493Z,63.68
2018-08-13T09:27:59.188Z,63.16
2018-08-13T09:31:14.229Z,63.17
2018-08-13T09:34:33.838Z,63.64
2018-08-13T09:37:37.574Z,63.59
2018-08-13T09:40:41.235Z,63.42
2018-08-13T09:43:44.927Z,63.90
2018-08-13T09:46:48.588Z,65.35
2018-08-13T09:49:52.189Z,64.55
2018-08-13T09:52:55.999Z,63.58
2018-08-13T09:55:59.643Z,64.98
2018-08-13T09:59:03.278Z,62.73
2018-08-13T10:02:07.045Z,63.47
2018-08-13T10:05:10.917Z,64.29
2018-08-13T10:08:14.624Z,63.93
2018-08-13T10:11:18.390Z,65.10
2018-08-13T10:14:22.094Z,63.69
2018-08-13T10:17:26.031Z,63.84
2018-08-13T10:20:29.844Z,61.15
2018-08-13T10:23:33.620Z,61.92
2018-08-13T10:26:37.397Z,62.88
2018-08-13T10:29:41.114Z,62.25
2018-08-13T10:32:44.958Z,61.95
2018-08-13T10:35:48.690Z,62.44
2018-08-13T10:38:53.649Z,61.80
2018-08-13T10:41:57.343Z,60.81
2018-08-13T10:45:01.072Z,61.33
2018-08-13T10:48:04.914Z,60.30
2018-08-13T10:51:08.589Z,60.80
2018-08-13T10:54:12.244Z,60.33
2018-08-13T10:57:16.207Z,60.97
2018-08-13T11:00:19.836Z,58.98
2018-08-13T11:03:23.546Z,58.77
2018-08-13T11:06:27.465Z,59.88
2018-08-13T11:09:31.106Z,61.41
2018-08-13T11:12:34.993Z,61.01
2018-08-13T11:15:38.844Z,61.07
2018-08-13T11:18:42.633Z,61.81
2018-08-13T11:21:46.456Z,63.06
2018-08-13T11:24:50.263Z,64.06
2018-08-13T11:27:53.981Z,64.80
2018-08-13T11:30:57.631Z,65.31
2018-08-13T11:34:01.384Z,64.86
2018-08-13T11:37:05.164Z,64.01
2018-08-13T11:40:13.055Z,62.84
2018-08-13T11:43:16.763Z,63.83
2018-08-13T11:46:20.458Z,64.77
2018-08-13T11:49:24.137Z,64.76
2018-08-13T11:52:27.908Z,63.99
2018-08-13T11:55:31.560Z,62.78
2018-08-13T11:58:35.883Z,61.42
2018-08-13T12:01:39.637Z,59.62
2018-08-13T12:04:43.276Z,59.99
2018-08-13T12:07:47.151Z,61.07
2018-08-13T12:10:50.775Z,59.72
2018-08-13T12:13:54.430Z,58.16
2018-08-13T12:16:58.261Z,59.15
2018-08-13T12:20:02.293Z,56.76
2018-08-13T12:23:06.100Z,55.86
2018-08-13T12:26:09.973Z,55.07
2018-08-13T12:29:13.716Z,54.47
2018-08-13T12:32:17.416Z,53.36
2018-08-13T12:35:21.415Z,54.44
2018-08-13T12:38:25.232Z,54.01
2018-08-13T12:41:28.945Z,54.47
2018-08-13T12:44:32.763Z,55.18
2018-08-13T12:47:36.705Z,54.79
2018-08-13T12:50:40.531Z,51.51
2018-08-13T12:53:44.335Z,53.31
2018-08-13T12:56:48.228Z,53.89
2018-08-13T12:59:52.024Z,53.58
2018-08-13T13:02:55.750Z,53.60
2018-08-13T13:05:59.516Z,53.99
2018-08-13T13:09:03.842Z,53.67
2018-08-13T13:12:07.502Z,52.63
2018-08-13T13:15:12.888Z,52.44
2018-08-13T13:18:16.675Z,52.73
2018-08-13T13:21:20.498Z,52.31
2018-08-13T13:24:24.388Z,54.29
2018-08-13T13:27:28.240Z,54.21
2018-08-13T13:30:32.067Z,55.61
2018-08-13T13:33:35.746Z,55.86
2018-08-13T13:36:39.573Z,55.05
2018-08-13T13:39:43.282Z,56.50
2018-08-13T13:42:47.040Z,57.08
2018-08-13T13:45:50.805Z,59.10
2018-08-13T13:48:54.841Z,59.39
2018-08-13T13:51:58.559Z,60.54
2018-08-13T13:55:02.322Z,59.06
2018-08-13T13:58:06.731Z,59.61
2018-08-13T14:01:10.456Z,59.77
2018-08-13T14:04:14.279Z,60.72
2018-08-13T14:07:17.886Z,61.68
2018-08-13T14:10:22.661Z,62.87
2018-08-13T14:13:26.290Z,63.00
2018-08-13T14:16:30.047Z,62.93
2018-08-13T14:19:33.911Z,63.15
2018-08-13T14:22:37.805Z,63.36
2018-08-13T14:25:41.609Z,62.63
2018-08-13T14:28:45.501Z,61.92
2018-08-13T14:31:49.371Z,61.25
2018-08-13T14:34:53.509Z,61.03
2018-08-13T14:37:57.131Z,62.07
2018-08-13T14:41:00.924Z,61.18
2018-08-13T14:44:04.957Z,61.18
2018-08-13T14:47:08.696Z,62.52
2018-08-13T14:50:13.002Z,62.46
2018-08-13T14:53:16.770Z,63.15
2018-08-13T14:56:20.570Z,63.84
2018-08-13T14:59:24.317Z,65.79
2018-08-13T15:02:28.097Z,65.85
2018-08-13T15:05:31.849Z,67.89
2018-08-13T15:08:35.670Z,69.47
2018-08-13T15:11:41.255Z,69.44
2018-08-13T15:14:44.965Z,69.58
2018-08-13T15:17:49.094Z,69.58
2018-08-13T15:20:52.822Z,69.18
2018-08-13T15:23:56.676Z,68.84
2018-08-13T15:27:00.529Z,68.68
2018-08-13T15:30:05.523Z,69.42
2018-08-13T15:33:09.320Z,71.37
2018-08-13T15:36:13.008Z,71.59
2018-08-13T15:39:16.642Z,71.59
2018-08-13T15:42:20.448Z,70.91
2018-08-13T15:45:24.728Z,71.50
2018-08-13T15:48:29.581Z,71.27
2018-08-13T15:51:33.318Z,71.31
2018-08-13T15:57:52.368Z,71.53
2018-08-13T16:00:55.996Z,72.90
2018-08-13T16:03:59.782Z,71.75
2018-08-13T16:07:06.705Z,73.41
2018-08-13T16:10:12.296Z,74.11
2018-08-13T16:13:16.108Z,73.69
2018-08-13T16:16:19.820Z,71.98
2018-08-13T16:19:23.536Z,70.39
2018-08-13T16:22:27.228Z,70.86
2018-08-13T16:25:31.132Z,70.69
2018-08-13T16:28:34.921Z,69.89
2018-08-13T16:31:38.766Z,70.85
2018-08-13T16:34:42.467Z,71.54
2018-08-13T16:37:46.595Z,70.81
2018-08-13T16:40:50.331Z,69.96
2018-08-13T16:43:54.169Z,69.63
2018-08-13T16:46:57.864Z,68.98
2018-08-13T16:50:01.549Z,69.32
2018-08-13T16:53:05.321Z,69.75
2018-08-13T16:56:09.039Z,70.11
2018-08-13T16:59:13.026Z,70.31
2018-08-13T17:02:16.856Z,69.66
2018-08-13T17:05:20.751Z,70.11
2018-08-13T17:08:24.454Z,70.08
2018-08-13T17:11:32.308Z,70.00
2018-08-13T17:14:36.308Z,70.60
2018-08-13T17:17:40.084Z,71.19
2018-08-13T17:20:43.970Z,71.12
2018-08-13T17:23:47.880Z,71.40
2018-08-13T17:26:51.653Z,72.15
2018-08-13T17:29:55.414Z,71.99
2018-08-13T17:33:00.332Z,70.26
2018-08-13T17:36:04.157Z,68.94
2018-08-13T17:39:10.956Z,68.83
2018-08-13T17:42:14.817Z,69.80
2018-08-13T17:45:18.777Z,69.92
2018-08-13T17:48:22.509Z,69.24
2018-08-13T17:51:26.332Z,70.87
2018-08-13T17:54:30.107Z,71.63
2018-08-13T17:57:33.893Z,71.72
2018-08-13T18:00:37.679Z,68.09
2018-08-13T18:03:41.384Z,68.33
2018-08-13T18:06:45.305Z,69.98
2018-08-13T18:09:49.019Z,69.79
2018-08-13T18:12:52.910Z,72.83
2018-08-13T18:15:56.715Z,73.97
2018-08-13T18:19:00.404Z,74.78
2018-08-13T18:22:04.164Z,75.55
2018-08-13T18:25:09.993Z,76.53
2018-08-13T18:28:13.764Z,76.44
2018-08-13T18:31:17.445Z,76.90
2018-08-13T18:34:21.216Z,76.87
2018-08-13T18:37:25.016Z,77.34
2018-08-13T18:40:34.280Z,77.67
2018-08-13T18:43:38.038Z,78.08
2018-08-13T18:46:41.755Z,78.42
2018-08-13T18:49:45.486Z,78.48
2018-08-13T18:52:49.295Z,78.91
2018-08-13T18:55:52.962Z,79.48
2018-08-13T18:58:56.752Z,78.96
2018-08-13T19:02:00.493Z,79.53
2018-08-13T19:05:04.492Z,80.00
2018-08-13T19:08:08.235Z,80.41
2018-08-13T19:11:12.008Z,81.02
2018-08-13T19:14:15.728Z,81.24
2018-08-13T19:17:19.538Z,81.93
2018-08-13T19:20:23.542Z,82.32
2018-08-13T19:23:27.612Z,82.05
2018-08-13T19:26:31.423Z,82.22
2018-08-13T19:29:35.143Z,81.89
2018-08-13T19:32:39.064Z,82.06
2018-08-13T19:35:42.828Z,82.17
2018-08-13T19:38:46.535Z,82.57
2018-08-13T19:41:50.314Z,82.31
2018-08-13T19:44:54.144Z,82.38
2018-08-13T19:47:57.980Z,82.48
2018-08-13T19:51:02.016Z,81.79
2018-08-13T19:54:05.966Z,81.62
2018-08-13T19:57:09.678Z,81.70
2018-08-13T20:00:21.615Z,81.66
2018-08-13T20:03:25.309Z,81.79
2018-08-13T20:06:29.019Z,81.49
2018-08-13T20:09:32.780Z,82.28
2018-08-13T20:12:36.664Z,82.54
2018-08-13T20:15:40.587Z,83.02
2018-08-13T20:18:44.426Z,83.39
2018-08-13T20:21:48.364Z,84.05
2018-08-13T20:24:52.210Z,84.73
2018-08-13T20:27:56.030Z,85.09
2018-08-13T20:30:59.763Z,85.54
2018-08-13T20:34:03.609Z,86.11
2018-08-13T20:37:07.495Z,86.40
2018-08-13T20:40:13.259Z,86.17
2018-08-13T20:43:17.020Z,86.40
2018-08-13T20:46:21.839Z,86.37
2018-08-13T20:49:25.948Z,86.04
2018-08-13T20:52:29.704Z,86.30
2018-08-13T20:55:34.101Z,85.70
2018-08-13T20:58:37.865Z,85.95
2018-08-13T21:01:42.327Z,85.97
2018-08-13T21:04:46.035Z,86.32
2018-08-13T21:07:50.359Z,86.20
2018-08-13T21:10:54.139Z,85.92
2018-08-13T21:13:58.076Z,86.24
2018-08-13T21:17:01.913Z,86.02
2018-08-13T21:20:06.370Z,86.27
2018-08-13T21:23:10.275Z,86.11
2018-08-13T21:26:14.014Z,86.29
2018-08-13T21:29:17.795Z,86.30
2018-08-13T21:32:21.546Z,86.51
2018-08-13T21:35:26.164Z,85.95
2018-08-13T21:38:29.950Z,86.04
2018-08-13T21:41:33.599Z,86.06
2018-08-13T21:44:37.386Z,86.05
2018-08-13T21:47:41.530Z,85.89
2018-08-13T21:50:45.217Z,86.44
2018-08-13T21:53:49.066Z,86.21
2018-08-13T21:56:52.817Z,86.62
2018-08-13T21:59:56.632Z,86.43
2018-08-13T22:03:01.962Z,87.11
2018-08-13T22:06:05.685Z,86.97
2018-08-13T22:09:10.154Z,87.17
2018-08-13T22:12:19.099Z,87.11
2018-08-13T22:15:29.106Z,88.03
2018-08-13T22:18:32.861Z,88.52
2018-08-13T22:21:37.016Z,88.59
2018-08-13T22:24:51.766Z,88.52
2018-08-13T22:27:55.545Z,88.77
2018-08-13T22:30:59.271Z,89.10
2018-08-13T22:34:02.961Z,88.81
2018-08-13T22:37:06.748Z,89.11
2018-08-13T22:40:13.845Z,88.98
2018-08-13T22:43:17.491Z,89.05
2018-08-13T22:46:21.230Z,89.02
2018-08-13T22:49:24.916Z,89.02
2018-08-13T22:52:28.782Z,89.18
2018-08-13T22:55:32.646Z,89.23
2018-08-13T22:58:36.379Z,89.14
2018-08-13T23:01:40.066Z,89.05
2018-08-13T23:04:43.791Z,89.44
2018-08-13T23:07:47.520Z,89.27
2018-08-13T23:10:51.321Z,89.31
2018-08-13T23:13:55.192Z,89.10
2018-08-13T23:16:59.100Z,89.48
2018-08-13T23:20:02.874Z,89.94
2018-08-13T23:23:06.739Z,90.07
2018-08-13T23:26:10.545Z,89.88
2018-08-13T23:29:14.201Z,89.99
2018-08-13T23:32:17.944Z,89.48
2018-08-13T23:35:22.454Z,89.56
2018-08-13T23:38:26.133Z,89.69
2018-08-13T23:41:29.837Z,89.57
2018-08-13T23:44:33.541Z,89.50
2018-08-13T23:47:37.546Z,89.47
2018-08-13T23:50:41.364Z,89.65
2018-08-13T23:53:45.050Z,89.39
2018-08-13T23:56:48.711Z,89.65
2018-08-13T23:59:52.435Z,89.64
